createdAt,value
2022-08-07T00:02:37.593Z,14.75
2022-08-07T00:04:09.677Z,14.76
2022-08-07T00:06:51.141Z,14.71
2022-08-07T00:09:22.676Z,14.66
2022-08-07T00:11:55.536Z,14.64
2022-08-07T00:14:30.969Z,14.57
2022-08-07T00:17:02.531Z,14.54
2022-08-07T00:20:00.173Z,14.51
2022-08-07T00:22:24.782Z,14.47
2022-08-07T00:25:07.364Z,14.43
2022-08-07T00:27:52.698Z,14.31
2022-08-07T00:30:27.025Z,14.20
2022-08-07T00:32:58.285Z,14.21
2022-08-07T00:35:29.989Z,14.20
2022-08-07T00:38:00.113Z,14.06
2022-08-07T00:40:39.638Z,13.95
2022-08-07T00:44:01.016Z,13.96
2022-08-07T00:46:02.739Z,13.93
2022-08-07T00:48:32.391Z,13.94
2022-08-07T00:51:02.821Z,13.95
2022-08-07T00:53:38.507Z,13.94
2022-08-07T00:56:18.744Z,13.93
2022-08-07T00:58:49.836Z,13.88
2022-08-07T01:01:20.438Z,13.85
2022-08-07T01:03:56.314Z,13.83
2022-08-07T01:06:29.412Z,13.80
2022-08-07T01:09:00.946Z,13.77
2022-08-07T01:12:23.406Z,13.74
2022-08-07T01:14:28.246Z,13.72
2022-08-07T01:16:58.479Z,13.68
2022-08-07T01:19:32.238Z,13.65
2022-08-07T01:22:03.438Z,13.61
2022-08-07T01:24:41.869Z,13.59
2022-08-07T01:27:19.663Z,13.55
2022-08-07T01:29:50.478Z,13.54
2022-08-07T01:32:19.395Z,13.53
2022-08-07T01:34:51.150Z,13.47
2022-08-07T01:37:20.088Z,13.43
2022-08-07T01:39:49.835Z,13.39
2022-08-07T01:42:37.551Z,13.36
2022-08-07T01:45:10.079Z,13.33
2022-08-07T01:48:20.585Z,13.30
2022-08-07T01:50:43.013Z,13.26
2022-08-07T01:53:20.823Z,12.97
2022-08-07T01:56:02.447Z,12.64
2022-08-07T01:58:41.006Z,12.54
2022-08-07T02:01:25.566Z,12.72
2022-08-07T02:04:16.256Z,12.69
2022-08-07T02:06:48.573Z,12.63
2022-08-07T02:09:52.428Z,12.65
2022-08-07T02:12:17.744Z,12.68
2022-08-07T02:14:56.023Z,12.73
2022-08-07T02:17:49.597Z,12.72
2022-08-07T02:20:23.810Z,12.68
2022-08-07T02:23:01.736Z,12.71
2022-08-07T02:26:10.751Z,12.65
2022-08-07T02:28:27.096Z,12.34
2022-08-07T02:30:59.073Z,12.13
2022-08-07T02:33:33.015Z,12.22
2022-08-07T02:36:28.564Z,12.36
2022-08-07T02:39:16.265Z,12.43
2022-08-07T02:41:50.554Z,12.43
2022-08-07T02:44:27.653Z,12.47
2022-08-07T02:47:05.715Z,12.51
2022-08-07T02:49:58.519Z,12.52
2022-08-07T02:52:32.763Z,12.49
2022-08-07T02:55:15.329Z,12.45
2022-08-07T02:58:03.008Z,12.44
2022-08-07T03:00:35.977Z,12.43
2022-08-07T03:03:13.312Z,12.43
2022-08-07T03:05:45.303Z,12.37
2022-08-07T03:08:14.368Z,12.11
2022-08-07T03:10:47.150Z,11.87
2022-08-07T03:13:20.237Z,11.97
2022-08-07T03:15:56.179Z,12.07
2022-08-07T03:18:34.487Z,12.10
2022-08-07T03:21:08.546Z,12.11
2022-08-07T03:24:20.499Z,12.11
2022-08-07T03:26:34.313Z,12.17
2022-08-07T03:29:11.237Z,12.20
2022-08-07T03:31:49.923Z,12.21
2022-08-07T03:34:22.515Z,12.22
2022-08-07T03:36:54.876Z,12.18
2022-08-07T03:39:59.039Z,12.02
2022-08-07T03:42:17.115Z,12.08
2022-08-07T03:44:53.194Z,12.13
2022-08-07T03:47:22.582Z,12.16
2022-08-07T03:49:52.440Z,12.21
2022-08-07T03:52:28.173Z,12.25
2022-08-07T03:55:07.295Z,12.29
2022-08-07T03:58:35.419Z,12.28
2022-08-07T04:00:33.584Z,12.32
2022-08-07T04:03:05.282Z,12.34
2022-08-07T04:05:40.292Z,12.39
2022-08-07T04:08:16.098Z,12.42
2022-08-07T04:10:54.339Z,12.47
2022-08-07T04:14:10.348Z,12.52
2022-08-07T04:16:31.607Z,12.57
2022-08-07T04:19:04.106Z,12.63
2022-08-07T04:21:48.190Z,12.69
2022-08-07T04:24:38.897Z,12.75
2022-08-07T04:27:15.164Z,12.82
2022-08-07T04:30:01.349Z,12.87
2022-08-07T04:32:48.423Z,12.93
2022-08-07T04:35:35.021Z,13.00
2022-08-07T04:38:13.036Z,13.08
2022-08-07T04:40:51.906Z,13.15
2022-08-07T04:44:09.922Z,13.24
2022-08-07T04:47:04.859Z,13.33
2022-08-07T04:50:11.032Z,13.43
2022-08-07T04:52:59.210Z,13.52
2022-08-07T04:58:16.887Z,13.59
2022-08-07T05:00:07.820Z,13.69
2022-08-07T05:02:20.481Z,13.78
2022-08-07T05:05:12.006Z,13.85
2022-08-07T05:08:04.645Z,13.94
2022-08-07T05:10:45.462Z,14.02
2022-08-07T05:14:53.187Z,14.10
2022-08-07T05:16:18.724Z,14.20
2022-08-07T05:19:11.907Z,14.28
2022-08-07T05:21:59.923Z,14.39
2022-08-07T05:24:40.246Z,14.50
2022-08-07T05:27:14.509Z,14.64
2022-08-07T05:30:02.690Z,14.78
2022-08-07T05:32:31.442Z,14.85
2022-08-07T05:35:02.432Z,14.94
2022-08-07T05:37:31.908Z,15.15
2022-08-07T05:40:17.717Z,15.25
2022-08-07T05:42:55.852Z,15.32
2022-08-07T05:45:46.107Z,15.45
2022-08-07T05:48:14.577Z,15.64
2022-08-07T05:50:46.777Z,15.72
2022-08-07T05:54:13.790Z,15.82
2022-08-07T05:56:06.897Z,15.92
2022-08-07T05:58:40.762Z,15.95
2022-08-07T06:01:21.068Z,16.04
2022-08-07T06:04:01.025Z,16.14
2022-08-07T06:06:35.769Z,16.25
2022-08-07T06:09:06.198Z,16.35
2022-08-07T06:11:38.002Z,16.44
2022-08-07T06:14:11.499Z,16.59
2022-08-07T06:16:50.386Z,16.70
2022-08-07T06:19:58.084Z,16.74
2022-08-07T06:22:22.829Z,16.93
2022-08-07T06:24:58.185Z,17.01
2022-08-07T06:27:44.122Z,17.14
2022-08-07T06:30:32.301Z,17.19
2022-08-07T06:33:16.334Z,17.30
2022-08-07T06:36:06.191Z,17.26
2022-08-07T06:38:35.463Z,17.25
2022-08-07T06:41:15.743Z,17.42
2022-08-07T06:43:59.494Z,17.50
2022-08-07T06:46:35.265Z,17.57
2022-08-07T06:49:05.322Z,17.65
2022-08-07T06:51:49.628Z,17.74
2022-08-07T06:55:33.827Z,17.91
2022-08-07T06:57:09.504Z,18.09
2022-08-07T07:00:14.593Z,18.07
2022-08-07T07:02:53.407Z,18.11
2022-08-07T07:06:03.226Z,18.05
2022-08-07T07:08:18.548Z,18.16
2022-08-07T07:10:57.154Z,18.24
2022-08-07T07:13:58.238Z,18.26
2022-08-07T07:16:45.219Z,18.33
2022-08-07T07:19:56.023Z,18.39
2022-08-07T07:22:39.997Z,18.43
2022-08-07T07:26:31.022Z,18.57
2022-08-07T07:28:48.549Z,18.27
2022-08-07T07:31:39.871Z,18.63
2022-08-07T07:34:22.150Z,18.78
2022-08-07T07:37:14.364Z,18.77
2022-08-07T07:39:54.669Z,18.87
2022-08-07T07:42:32.843Z,19.06
2022-08-07T07:45:04.378Z,18.97
2022-08-07T07:47:52.268Z,19.05
2022-08-07T07:50:34.816Z,19.16
2022-08-07T07:53:20.178Z,19.12
2022-08-07T07:56:00.877Z,19.19
2022-08-07T07:58:36.889Z,19.33
2022-08-07T08:02:01.706Z,19.38
2022-08-07T08:04:09.325Z,19.47
2022-08-07T08:06:51.986Z,19.46
2022-08-07T08:09:25.330Z,19.47
2022-08-07T08:12:03.819Z,19.56
2022-08-07T08:14:36.700Z,19.30
2022-08-07T08:17:32.400Z,19.36
2022-08-07T08:20:18.487Z,19.45
2022-08-07T08:23:11.133Z,19.41
2022-08-07T08:26:04.706Z,19.53
2022-08-07T08:28:44.793Z,19.59
2022-08-07T08:31:22.859Z,19.81
2022-08-07T08:34:12.373Z,20.05
2022-08-07T08:36:56.182Z,19.90
2022-08-07T08:39:39.051Z,19.97
2022-08-07T08:42:27.584Z,20.09
2022-08-07T08:45:13.733Z,20.14
2022-08-07T08:48:32.539Z,20.34
2022-08-07T08:51:26.227Z,20.58
2022-08-07T08:54:24.216Z,20.48
2022-08-07T08:56:56.225Z,20.65
2022-08-07T08:59:48.455Z,20.68
2022-08-07T09:02:39.347Z,20.75
2022-08-07T09:05:58.942Z,20.97
2022-08-07T09:09:03.434Z,21.08
2022-08-07T09:12:31.196Z,21.65
2022-08-07T09:16:24.390Z,21.55
2022-08-07T09:18:58.519Z,22.02
2022-08-07T09:22:09.849Z,22.00
2022-08-07T09:24:58.586Z,20.82
2022-08-07T09:28:01.080Z,20.87
2022-08-07T09:31:00.935Z,20.52
2022-08-07T09:33:57.692Z,20.31
2022-08-07T09:36:37.104Z,20.27
2022-08-07T09:39:54.696Z,20.35
2022-08-07T09:42:50.464Z,20.46
2022-08-07T09:47:51.123Z,21.07
2022-08-07T09:50:18.327Z,21.84
2022-08-07T09:52:33.356Z,22.31
2022-08-07T09:56:02.318Z,22.45
2022-08-07T09:58:54.289Z,22.18
2022-08-07T10:02:33.659Z,21.52
2022-08-07T10:05:59.841Z,20.77
2022-08-07T10:09:07.266Z,20.73
2022-08-07T10:12:39.673Z,20.56
2022-08-07T10:15:49.056Z,20.61
2022-08-07T10:18:46.814Z,20.88
2022-08-07T10:21:51.132Z,21.17
2022-08-07T10:25:01.509Z,21.19
2022-08-07T10:27:58.616Z,21.17
2022-08-07T10:30:50.053Z,22.35
2022-08-07T10:34:05.785Z,22.15
2022-08-07T10:38:00.316Z,22.71
2022-08-07T10:40:33.356Z,22.69
2022-08-07T10:43:19.296Z,22.43
2022-08-07T10:46:08.053Z,22.18
2022-08-07T10:49:10.113Z,22.26
2022-08-07T10:52:13.204Z,22.39
2022-08-07T10:55:01.265Z,22.62
2022-08-07T10:57:59.673Z,22.65
2022-08-07T11:00:50.612Z,22.69
2022-08-07T11:03:52.484Z,23.08
2022-08-07T11:06:44.454Z,23.61
2022-08-07T11:10:08.624Z,24.21
2022-08-07T11:12:35.333Z,24.62
2022-08-07T11:15:17.970Z,24.44
2022-08-07T11:18:14.848Z,25.08
2022-08-07T11:21:21.679Z,25.76
2022-08-07T11:24:08.650Z,26.23
2022-08-07T11:27:06.323Z,25.99
2022-08-07T11:30:18.201Z,26.20
2022-08-07T11:32:58.679Z,25.65
2022-08-07T11:36:01.442Z,24.70
2022-08-07T11:38:50.985Z,24.16
2022-08-07T11:41:29.713Z,23.75
2022-08-07T11:45:01.634Z,23.20
2022-08-07T11:47:38.922Z,22.57
2022-08-07T11:50:57.688Z,22.25
2022-08-07T11:54:09.768Z,22.23
2022-08-07T11:57:15.842Z,22.32
2022-08-07T12:00:10.682Z,23.26
2022-08-07T12:03:41.968Z,23.90
2022-08-07T12:06:51.597Z,25.10
2022-08-07T12:09:36.379Z,25.15
2022-08-07T12:12:14.331Z,24.98
2022-08-07T12:15:46.507Z,24.57
2022-08-07T12:18:29.778Z,23.76
2022-08-07T12:21:54.978Z,24.95
2022-08-07T12:24:38.342Z,27.19
2022-08-07T12:27:16.207Z,27.32
2022-08-07T12:30:04.573Z,26.99
2022-08-07T12:32:48.311Z,27.31
2022-08-07T12:35:19.462Z,26.03
2022-08-07T12:38:10.234Z,26.73
2022-08-07T12:40:47.780Z,26.77
2022-08-07T12:44:01.935Z,25.64
2022-08-07T12:46:32.472Z,26.28
2022-08-07T12:49:25.869Z,27.06
2022-08-07T12:52:18.081Z,26.60
2022-08-07T12:55:05.582Z,27.38
2022-08-07T12:58:00.738Z,27.71
2022-08-07T13:00:50.470Z,25.85
2022-08-07T13:04:01.953Z,25.30
2022-08-07T13:07:00.183Z,25.91
2022-08-07T13:10:19.562Z,26.32
2022-08-07T13:12:53.954Z,25.30
2022-08-07T13:15:35.195Z,25.05
2022-08-07T13:18:34.204Z,25.44
2022-08-07T13:21:50.488Z,25.87
2022-08-07T13:24:30.817Z,25.44
2022-08-07T13:27:20.801Z,25.68
2022-08-07T13:30:05.949Z,25.75
2022-08-07T13:34:31.224Z,25.00
2022-08-07T13:36:17.799Z,24.22
2022-08-07T13:39:49.063Z,24.23
2022-08-07T13:42:10.162Z,24.04
2022-08-07T13:44:40.138Z,23.77
2022-08-07T13:47:15.926Z,23.58
2022-08-07T13:50:34.785Z,23.49
2022-08-07T13:52:46.985Z,23.22
2022-08-07T13:55:25.819Z,23.25
2022-08-07T13:58:32.524Z,23.30
2022-08-07T14:01:20.401Z,23.80
2022-08-07T14:04:05.343Z,24.07
2022-08-07T14:06:41.888Z,23.98
2022-08-07T14:10:02.722Z,24.81
2022-08-07T14:12:27.576Z,25.52
2022-08-07T14:15:04.576Z,25.67
2022-08-07T14:18:27.317Z,24.65
2022-08-07T14:20:41.050Z,25.28
2022-08-07T14:23:59.416Z,25.29
2022-08-07T14:26:28.088Z,24.27
2022-08-07T14:29:06.028Z,23.82
2022-08-07T14:31:57.641Z,23.81
2022-08-07T14:34:30.207Z,23.94
2022-08-07T14:37:04.109Z,23.62
2022-08-07T14:40:17.392Z,23.98
2022-08-07T14:42:31.225Z,23.55
2022-08-07T14:45:21.183Z,23.34
2022-08-07T14:47:58.692Z,23.10
2022-08-07T14:50:29.062Z,23.09
2022-08-07T14:53:08.210Z,23.07
2022-08-07T14:55:55.565Z,22.99
2022-08-07T14:58:34.170Z,23.03
2022-08-07T15:01:21.717Z,23.10
2022-08-07T15:03:53.393Z,23.42
2022-08-07T15:06:29.822Z,23.60
2022-08-07T15:12:26.034Z,23.32
2022-08-07T15:15:09.192Z,23.13
2022-08-07T15:18:04.443Z,22.89
2022-08-07T15:20:54.943Z,22.89
2022-08-07T15:26:28.869Z,23.86
2022-08-07T15:30:02.314Z,23.76
2022-08-07T15:34:50.407Z,24.02
2022-08-07T15:38:17.813Z,24.18
2022-08-07T15:43:53.850Z,24.34
2022-08-07T15:46:31.868Z,24.70
2022-08-07T15:49:15.124Z,24.98
2022-08-07T15:54:34.291Z,24.84
2022-08-07T15:57:06.427Z,24.57
2022-08-07T15:59:39.982Z,23.77
2022-08-07T16:02:26.983Z,23.95
2022-08-07T16:05:15.427Z,24.12
2022-08-07T16:08:31.926Z,24.20
2022-08-07T16:10:43.055Z,24.72
2022-08-07T16:14:00.267Z,24.38
2022-08-07T16:16:49.938Z,24.27
2022-08-07T16:19:59.279Z,24.31
2022-08-07T16:22:58.027Z,24.39
2022-08-07T16:26:01.357Z,24.77
2022-08-07T16:30:09.136Z,24.61
2022-08-07T16:32:01.458Z,24.73
2022-08-07T16:34:48.387Z,24.86
2022-08-07T16:38:06.385Z,24.41
2022-08-07T16:41:41.055Z,24.04
2022-08-07T16:45:15.094Z,23.89
2022-08-07T16:48:53.564Z,23.93
2022-08-07T16:51:54.480Z,24.06
2022-08-07T16:55:11.539Z,23.95
2022-08-07T16:58:02.702Z,23.86
2022-08-07T17:00:53.950Z,23.80
2022-08-07T17:03:59.390Z,24.02
2022-08-07T17:07:02.935Z,23.61
2022-08-07T17:10:05.981Z,23.39
2022-08-07T17:12:53.976Z,23.67
2022-08-07T17:15:50.710Z,23.59
2022-08-07T17:19:00.906Z,23.33
2022-08-07T17:21:51.255Z,22.93
2022-08-07T17:25:00.939Z,22.80
2022-08-07T17:27:54.405Z,22.65
2022-08-07T17:30:30.322Z,22.56
2022-08-07T17:34:09.369Z,22.50
2022-08-07T17:36:20.524Z,22.37
2022-08-07T17:39:10.186Z,22.42
2022-08-07T17:42:06.740Z,22.45
2022-08-07T17:44:50.074Z,22.37
2022-08-07T17:47:38.644Z,22.13
2022-08-07T17:50:19.502Z,22.04
2022-08-07T17:54:00.039Z,22.06
2022-08-07T17:56:28.721Z,21.97
2022-08-07T17:59:20.110Z,21.74
2022-08-07T18:02:34.115Z,21.58
2022-08-07T18:05:21.324Z,21.51
2022-08-07T18:08:31.223Z,21.47
2022-08-07T18:12:07.026Z,21.41
2022-08-07T18:14:24.316Z,21.37
2022-08-07T18:17:07.438Z,21.28
2022-08-07T18:21:10.478Z,21.16
2022-08-07T18:22:58.637Z,21.04
2022-08-07T18:25:40.663Z,20.94
2022-08-07T18:28:35.242Z,20.87
2022-08-07T18:31:49.859Z,20.79
2022-08-07T18:34:40.951Z,20.58
2022-08-07T18:38:56.988Z,20.75
2022-08-07T18:41:02.765Z,20.74
2022-08-07T18:43:59.083Z,20.55
2022-08-07T18:47:10.224Z,20.43
2022-08-07T18:50:40.603Z,20.31
2022-08-07T18:53:21.907Z,20.25
2022-08-07T18:56:32.654Z,20.15
2022-08-07T18:59:47.704Z,20.02
2022-08-07T19:02:36.267Z,19.93
2022-08-07T19:06:02.749Z,19.84
2022-08-07T19:08:46.312Z,19.80
2022-08-07T19:11:36.226Z,19.74
2022-08-07T19:14:39.165Z,19.67
2022-08-07T19:17:55.899Z,19.61
2022-08-07T19:20:24.975Z,19.60
2022-08-07T19:23:18.541Z,19.54
2022-08-07T19:26:25.026Z,19.45
2022-08-07T19:30:54.832Z,19.40
2022-08-07T19:32:06.818Z,19.31
2022-08-07T19:34:38.833Z,19.19
2022-08-07T19:37:17.289Z,19.02
2022-08-07T19:39:57.455Z,18.99
2022-08-07T19:42:40.008Z,18.88
2022-08-07T19:46:04.978Z,18.85
2022-08-07T19:48:18.634Z,18.86
2022-08-07T19:50:53.184Z,18.78
2022-08-07T19:54:34.719Z,18.81
2022-08-07T19:58:00.719Z,18.88
2022-08-07T19:59:07.069Z,18.91
2022-08-07T20:01:52.324Z,18.88
2022-08-07T20:04:37.559Z,18.84
2022-08-07T20:07:10.291Z,18.80
2022-08-07T20:10:37.370Z,18.66
2022-08-07T20:12:39.992Z,18.52
2022-08-07T20:15:22.108Z,18.54
2022-08-07T20:18:01.643Z,18.51
2022-08-07T20:20:34.587Z,18.44
2022-08-07T20:23:23.364Z,18.40
2022-08-07T20:26:09.995Z,18.39
2022-08-07T20:28:41.314Z,18.38
2022-08-07T20:31:21.268Z,18.36
2022-08-07T20:33:56.663Z,18.30
2022-08-07T20:36:29.610Z,18.27
2022-08-07T20:39:00.075Z,18.19
2022-08-07T20:41:38.524Z,18.12
2022-08-07T20:44:12.617Z,18.05
2022-08-07T20:46:45.238Z,17.95
2022-08-07T20:49:58.518Z,17.89
2022-08-07T20:52:29.892Z,17.87
2022-08-07T20:54:58.304Z,17.86
2022-08-07T20:57:35.984Z,17.81
2022-08-07T21:00:09.583Z,17.77
2022-08-07T21:03:03.182Z,17.50
2022-08-07T21:05:50.841Z,17.37
2022-08-07T21:08:44.516Z,17.35
2022-08-07T21:11:22.135Z,17.39
2022-08-07T21:14:34.022Z,17.47
2022-08-07T21:18:28.041Z,17.57
2022-08-07T21:20:04.685Z,17.57
2022-08-07T21:22:51.312Z,17.53
2022-08-07T21:26:03.024Z,17.58
2022-08-07T21:28:51.207Z,17.56
2022-08-07T21:32:43.600Z,17.53
2022-08-07T21:35:02.491Z,17.42
2022-08-07T21:38:18.798Z,17.36
2022-08-07T21:41:17.383Z,17.33
2022-08-07T21:43:57.069Z,17.12
2022-08-07T21:46:45.600Z,16.97
2022-08-07T21:50:01.819Z,16.98
2022-08-07T21:52:54.714Z,17.07
2022-08-07T21:55:52.424Z,17.01
2022-08-07T21:59:06.625Z,16.85
2022-08-07T22:02:10.154Z,16.76
2022-08-07T22:04:41.001Z,16.73
2022-08-07T22:07:58.960Z,16.93
2022-08-07T22:10:28.407Z,16.90
2022-08-07T22:13:12.596Z,16.66
2022-08-07T22:16:43.620Z,16.71
2022-08-07T22:19:08.412Z,16.82
2022-08-07T22:22:04.899Z,16.61
2022-08-07T22:24:43.574Z,16.68
2022-08-07T22:27:20.901Z,16.82
2022-08-07T22:30:15.127Z,16.83
2022-08-07T22:33:09.151Z,16.87
2022-08-07T22:36:06.430Z,16.86
2022-08-07T22:38:51.788Z,16.81
2022-08-07T22:42:03.616Z,16.68
2022-08-07T22:44:33.248Z,16.36
2022-08-07T22:47:33.737Z,16.30
2022-08-07T22:50:29.184Z,16.30
2022-08-07T22:54:06.527Z,16.46
2022-08-07T22:57:00.675Z,16.54
2022-08-07T22:59:51.976Z,16.55
2022-08-07T23:02:53.538Z,16.43
2022-08-07T23:06:09.991Z,16.28
2022-08-07T23:08:53.033Z,16.27
2022-08-07T23:11:48.490Z,16.26
2022-08-07T23:15:00.229Z,16.05
2022-08-07T23:17:33.077Z,15.96
2022-08-07T23:20:53.248Z,15.96
2022-08-07T23:24:05.639Z,15.93
2022-08-07T23:26:49.956Z,15.84
2022-08-07T23:30:38.398Z,15.75
2022-08-07T23:34:23.130Z,15.68
2022-08-07T23:36:22.942Z,15.57
2022-08-07T23:39:36.210Z,15.67
2022-08-07T23:43:16.428Z,15.61
2022-08-07T23:46:27.351Z,15.55
2022-08-07T23:49:49.935Z,15.65
2022-08-07T23:52:58.510Z,15.67
2022-08-07T23:56:05.345Z,15.69
